Time,TemperatureF,DewpointF,PressureIn,WindDirection,WindDirectionDegrees,WindSpeedMPH,WindSpeedGustMPH,Humidity,HourlyPrecipIn,Conditions,Clouds,dailyrainin,SolarRadiationWatts/m^2,SoftwareType,DateUTC
2013-03-02 00:00:00,49.9,49.9,30.28,SSE,162,0.0,0.0,100,0.00,,,0.00,0001,Weather View 32 v70,2013-03-02 08:00:00,
2013-03-02 00:10:00,49.9,49.9,30.28,SSE,162,0.0,0.0,100,0.00,,,0.00,0002,Weather View 32 v70,2013-03-02 08:10:00,
2013-03-02 00:20:00,49.8,49.8,30.28,SSE,162,0.0,0.0,100,0.00,,,0.00,0001,Weather View 32 v70,2013-03-02 08:20:00,
2013-03-02 00:29:00,49.7,49.7,30.28,SSE,162,0.0,0.0,100,0.00,,,0.00,0002,Weather View 32 v70,2013-03-02 08:29:00,
2013-03-02 00:35:00,49.8,49.8,30.28,NW,319,0.0,0.0,100,0.00,,,0.00,0002,Weather View 32 v70,2013-03-02 08:35:00,
2013-03-02 00:40:00,49.7,49.7,30.28,West,274,0.0,0.0,100,0.00,,,0.00,0001,Weather View 32 v70,2013-03-02 08:40:00,
2013-03-02 00:45:00,49.7,49.7,30.28,SW,229,0.0,0.0,100,0.00,,,0.00,0001,Weather View 32 v70,2013-03-02 08:45:00,
2013-03-02 00:50:00,49.7,49.7,30.28,West,274,0.0,0.0,100,0.00,,,0.00,0001,Weather View 32 v70,2013-03-02 08:50:00,
2013-03-02 01:00:00,49.8,49.8,30.28,NNE,27,0.0,0.0,100,0.00,,,0.00,0001,Weather View 32 v70,2013-03-02 09:00:00,
2013-03-02 01:05:00,49.5,49.5,30.28,SE,139,0.0,0.0,100,0.00,,,0.00,0001,Weather View 32 v70,2013-03-02 09:05:00,
2013-03-02 01:10:00,49.3,49.3,30.28,SE,139,0.0,0.0,100,0.00,,,0.00,0001,Weather View 32 v70,2013-03-02 09:10:00,
2013-03-02 01:15:00,49.3,49.3,30.28,SE,139,0.0,0.0,100,0.00,,,0.00,0001,Weather View 32 v70,2013-03-02 09:15:00,
2013-03-02 01:20:00,49.1,49.1,30.28,ESE,117,0.0,0.0,100,0.00,,,0.00,0001,Weather View 32 v70,2013-03-02 09:20:00,
2013-03-02 01:30:00,48.9,48.9,30.28,SE,139,0.0,0.0,100,0.00,,,0.00,0001,Weather View 32 v70,2013-03-02 09:30:00,
2013-03-02 01:35:00,48.9,48.9,30.28,SE,139,0.0,0.0,100,0.00,,,0.00,0001,Weather View 32 v70,2013-03-02 09:35:00,
2013-03-02 01:40:00,48.9,48.9,30.28,SE,139,0.0,0.0,100,0.00,,,0.00,0001,Weather View 32 v70,2013-03-02 09:40:00,
2013-03-02 01:45:00,48.8,48.8,30.27,SE,139,0.0,0.0,100,0.00,,,0.00,0001,Weather View 32 v70,2013-03-02 09:45:00,
2013-03-02 01:50:00,48.8,48.8,30.28,SE,139,0.0,0.0,100,0.00,,,0.00,0001,Weather View 32 v70,2013-03-02 09:50:00,
2013-03-02 02:00:00,49.0,49.0,30.27,SSW,207,0.0,0.0,100,0.00,,,0.00,0001,Weather View 32 v70,2013-03-02 10:00:00,
2013-03-02 02:05:00,49.0,49.0,30.27,SSW,207,0.0,0.0,100,0.00,,,0.00,0001,Weather View 32 v70,2013-03-02 10:05:00,
2013-03-02 02:15:00,49.1,49.1,30.27,SSW,207,0.0,0.0,100,0.00,,,0.00,0001,Weather View 32 v70,2013-03-02 10:15:00,
2013-03-02 02:21:00,49.1,49.1,30.26,SSW,207,0.0,0.0,100,0.00,,,0.00,0001,Weather View 32 v70,2013-03-02 10:21:00,
2013-03-02 02:30:00,48.9,48.9,30.26,SE,139,0.0,0.0,100,0.00,,,0.00,0001,Weather View 32 v70,2013-03-02 10:30:00,
2013-03-02 02:39:00,48.4,48.4,30.26,SE,139,0.0,0.0,100,0.00,,,0.00,0001,Weather View 32 v70,2013-03-02 10:39:00,
2013-03-02 02:45:00,48.2,48.2,30.25,SSE,162,0.0,0.0,100,0.00,,,0.00,0001,Weather View 32 v70,2013-03-02 10:45:00,
2013-03-02 02:50:00,48.1,48.1,30.25,South,184,0.0,0.0,100,0.00,,,0.00,0002,Weather View 32 v70,2013-03-02 10:50:00,
2013-03-02 03:00:00,48.0,48.0,30.25,South,184,0.0,0.0,100,0.00,,,0.00,0002,Weather View 32 v70,2013-03-02 11:00:00,
2013-03-02 03:10:00,47.8,47.8,30.25,South,184,0.0,0.0,100,0.00,,,0.00,0001,Weather View 32 v70,2013-03-02 11:10:00,
2013-03-02 03:15:00,47.9,47.9,30.24,South,184,0.0,0.0,100,0.00,,,0.00,0001,Weather View 32 v70,2013-03-02 11:15:00,
2013-03-02 03:22:00,47.9,47.9,30.24,SSE,162,0.0,0.0,100,0.00,,,0.00,0001,Weather View 32 v70,2013-03-02 11:22:00,
2013-03-02 03:30:00,47.9,47.9,30.24,SE,139,0.0,0.0,100,0.00,,,0.00,0002,Weather View 32 v70,2013-03-02 11:30:00,
2013-03-02 03:40:00,47.6,47.6,30.24,SE,139,0.0,0.0,100,0.00,,,0.00,0001,Weather View 32 v70,2013-03-02 11:40:00,
2013-03-02 03:45:00,47.6,47.6,30.24,SE,139,0.0,0.0,100,0.00,,,0.00,0002,Weather View 32 v70,2013-03-02 11:45:00,
2013-03-02 03:50:00,47.5,47.5,30.24,SE,139,0.0,0.0,100,0.00,,,0.00,0002,Weather View 32 v70,2013-03-02 11:50:00,
2013-03-02 03:55:00,47.7,47.7,30.24,East,94,0.0,0.0,100,0.00,,,0.00,0001,Weather View 32 v70,2013-03-02 11:55:00,
2013-03-02 04:00:00,47.6,47.6,30.24,WNW,297,0.0,0.0,100,0.00,,,0.00,0001,Weather View 32 v70,2013-03-02 12:00:00,
2013-03-02 04:10:00,47.5,47.5,30.24,North,4,0.0,0.0,100,0.00,,,0.00,0001,Weather View 32 v70,2013-03-02 12:10:00,
2013-03-02 04:15:00,47.5,47.5,30.24,North,4,0.0,0.0,100,0.00,,,0.00,0001,Weather View 32 v70,2013-03-02 12:15:00,
2013-03-02 04:20:00,47.3,47.3,30.24,North,4,0.0,0.0,100,0.00,,,0.00,0002,Weather View 32 v70,2013-03-02 12:20:00,
2013-03-02 04:25:00,47.2,47.2,30.24,SSE,162,0.0,0.0,100,0.00,,,0.00,0002,Weather View 32 v70,2013-03-02 12:25:00,
2013-03-02 04:35:00,47.2,47.2,30.24,SSW,207,0.0,0.0,100,0.00,,,0.00,0001,Weather View 32 v70,2013-03-02 12:35:00,
2013-03-02 04:40:00,47.2,47.2,30.24,East,94,0.0,0.0,100,0.00,,,0.00,0001,Weather View 32 v70,2013-03-02 12:40:00,
2013-03-02 04:45:00,47.2,47.2,30.24,South,184,0.0,0.0,100,0.00,,,0.00,0001,Weather View 32 v70,2013-03-02 12:45:00,
2013-03-02 04:50:00,47.2,47.2,30.24,SSE,162,0.0,0.0,100,0.00,,,0.00,0001,Weather View 32 v70,2013-03-02 12:50:00,
2013-03-02 05:00:00,47.0,47.0,30.23,South,184,0.0,0.0,100,0.00,,,0.00,0001,Weather View 32 v70,2013-03-02 13:00:00,
2013-03-02 05:05:00,47.2,47.2,30.23,South,184,0.0,0.0,100,0.00,,,0.00,0002,Weather View 32 v70,2013-03-02 13:05:00,
2013-03-02 05:10:00,47.2,47.2,30.23,South,184,0.0,0.0,100,0.00,,,0.00,0001,Weather View 32 v70,2013-03-02 13:10:00,
2013-03-02 05:15:00,47.2,47.2,30.23,West,274,0.0,0.0,100,0.00,,,0.00,0002,Weather View 32 v70,2013-03-02 13:15:00,
2013-03-02 05:20:00,47.2,47.2,30.23,West,274,0.0,0.0,100,0.00,,,0.00,0001,Weather View 32 v70,2013-03-02 13:20:00,
2013-03-02 05:30:00,47.2,47.2,30.23,SE,139,0.0,0.0,100,0.00,,,0.00,0002,Weather View 32 v70,2013-03-02 13:30:00,
2013-03-02 05:35:00,47.2,47.2,30.24,West,274,0.0,0.0,100,0.00,,,0.00,0001,Weather View 32 v70,2013-03-02 13:35:00,
2013-03-02 05:40:00,47.1,47.1,30.24,South,184,0.0,0.0,100,0.00,,,0.00,0001,Weather View 32 v70,2013-03-02 13:40:00,
2013-03-02 05:49:00,47.0,47.0,30.23,SSE,162,0.0,0.0,100,0.00,,,0.00,0001,Weather View 32 v70,2013-03-02 13:49:00,
2013-03-02 05:55:00,47.0,47.0,30.23,SSE,162,0.0,0.0,100,0.00,,,0.00,0001,Weather View 32 v70,2013-03-02 13:55:00,
2013-03-02 06:00:00,46.8,46.8,30.23,SE,139,0.0,0.0,100,0.00,,,0.00,0001,Weather View 32 v70,2013-03-02 14:00:00,
2013-03-02 06:05:00,46.8,46.8,30.23,SSE,162,0.0,0.0,100,0.00,,,0.00,0001,Weather View 32 v70,2013-03-02 14:05:00,
2013-03-02 06:10:00,46.6,46.6,30.23,SSE,162,0.0,0.0,100,0.00,,,0.00,0002,Weather View 32 v70,2013-03-02 14:10:00,
2013-03-02 06:15:00,46.5,46.5,30.23,SE,139,0.0,0.0,100,0.00,,,0.00,0002,Weather View 32 v70,2013-03-02 14:15:00,
2013-03-02 06:23:00,46.4,46.4,30.24,South,184,0.0,0.0,100,0.00,,,0.00,0002,Weather View 32 v70,2013-03-02 14:23:00,
2013-03-02 06:30:00,46.3,46.3,30.23,West,274,0.0,0.0,100,0.00,,,0.00,0003,Weather View 32 v70,2013-03-02 14:30:00,
2013-03-02 06:35:00,46.2,46.2,30.23,NW,319,0.0,0.0,100,0.00,,,0.00,0003,Weather View 32 v70,2013-03-02 14:35:00,
2013-03-02 06:40:00,46.3,46.3,30.24,SW,229,0.0,0.0,100,0.00,,,0.00,0005,Weather View 32 v70,2013-03-02 14:40:00,
2013-03-02 06:45:00,46.2,46.2,30.23,South,184,0.0,0.0,100,0.00,,,0.00,0010,Weather View 32 v70,2013-03-02 14:45:00,
2013-03-02 06:55:00,46.2,46.2,30.23,South,184,0.0,0.0,100,0.00,,,0.00,0019,Weather View 32 v70,2013-03-02 14:55:00,
2013-03-02 07:00:00,46.3,46.3,30.23,SSW,207,0.0,0.0,100,0.00,,,0.00,0029,Weather View 32 v70,2013-03-02 15:00:00,
2013-03-02 07:05:00,46.3,46.3,30.23,South,184,0.0,0.0,100,0.00,,,0.00,0034,Weather View 32 v70,2013-03-02 15:05:00,
2013-03-02 07:10:00,46.3,46.3,30.23,SSW,207,0.0,0.0,100,0.00,,,0.00,0038,Weather View 32 v70,2013-03-02 15:10:00,
2013-03-02 07:20:00,46.9,46.9,30.23,South,184,0.0,0.0,100,0.00,,,0.00,0045,Weather View 32 v70,2013-03-02 15:20:00,
2013-03-02 07:25:00,47.1,47.1,30.23,South,184,0.0,0.0,100,0.00,,,0.00,0051,Weather View 32 v70,2013-03-02 15:25:00,
2013-03-02 07:30:00,47.1,47.1,30.23,SSE,162,0.0,0.0,100,0.00,,,0.00,0057,Weather View 32 v70,2013-03-02 15:30:00,
2013-03-02 07:35:00,47.4,47.4,30.23,SSE,162,0.0,0.0,100,0.00,,,0.00,0064,Weather View 32 v70,2013-03-02 15:35:00,
2013-03-02 07:45:00,47.8,47.8,30.23,SE,139,0.0,0.0,100,0.00,,,0.00,0086,Weather View 32 v70,2013-03-02 15:45:00,
2013-03-02 07:50:00,48.0,48.0,30.23,ESE,117,0.0,0.0,100,0.00,,,0.00,0131,Weather View 32 v70,2013-03-02 15:50:00,
2013-03-02 07:55:00,48.3,48.3,30.23,ESE,117,0.0,0.0,100,0.00,,,0.00,0143,Weather View 32 v70,2013-03-02 15:55:00,
2013-03-02 08:00:00,49.0,49.0,30.24,SE,139,0.0,0.0,100,0.00,,,0.00,0274,Weather View 32 v70,2013-03-02 16:00:00,
2013-03-02 08:10:00,49.5,49.5,30.24,ENE,72,0.0,0.0,100,0.00,,,0.00,0233,Weather View 32 v70,2013-03-02 16:10:00,
2013-03-02 08:15:00,50.1,50.1,30.24,SE,139,0.0,0.0,100,0.00,,,0.00,0260,Weather View 32 v70,2013-03-02 16:15:00,
2013-03-02 08:24:00,50.5,50.5,30.23,NNE,27,0.0,0.0,100,0.00,,,0.00,0279,Weather View 32 v70,2013-03-02 16:24:00,
2013-03-02 08:30:00,51.6,51.6,30.23,ENE,72,0.0,0.0,100,0.00,,,0.00,0269,Weather View 32 v70,2013-03-02 16:30:00,
2013-03-02 08:40:00,52.1,52.1,30.24,WNW,297,0.0,0.0,100,0.00,,,0.00,0240,Weather View 32 v70,2013-03-02 16:40:00,
2013-03-02 08:45:00,52.3,52.3,30.24,WNW,297,0.0,0.0,100,0.00,,,0.00,0275,Weather View 32 v70,2013-03-02 16:45:00,
2013-03-02 08:55:00,53.0,53.0,30.23,NNW,342,0.0,0.0,100,0.00,,,0.00,0333,Weather View 32 v70,2013-03-02 16:55:00,
2013-03-02 09:05:00,53.7,53.7,30.23,North,4,2.0,3.0,100,0.00,,,0.00,0287,Weather View 32 v70,2013-03-02 17:05:00,
2013-03-02 09:10:00,54.2,54.2,30.23,South,184,0.0,3.0,100,0.00,,,0.00,0272,Weather View 32 v70,2013-03-02 17:10:00,
2013-03-02 09:15:00,55.0,55.0,30.23,ESE,117,0.0,3.0,100,0.00,,,0.00,0339,Weather View 32 v70,2013-03-02 17:15:00,
2013-03-02 09:20:00,55.7,55.7,30.23,East,94,0.0,3.0,100,0.00,,,0.00,0273,Weather View 32 v70,2013-03-02 17:20:00,
2013-03-02 09:25:00,56.4,56.4,30.23,NNE,27,1.0,3.0,100,0.00,,,0.00,0302,Weather View 32 v70,2013-03-02 17:25:00,
2013-03-02 09:35:00,57.5,57.5,30.23,NW,319,1.0,4.0,100,0.00,,,0.00,0263,Weather View 32 v70,2013-03-02 17:35:00,
2013-03-02 09:40:00,57.7,57.7,30.23,North,4,1.0,4.0,100,0.00,,,0.00,0258,Weather View 32 v70,2013-03-02 17:40:00,
2013-03-02 09:45:00,58.4,58.4,30.22,ENE,72,1.0,4.0,100,0.00,,,0.00,0347,Weather View 32 v70,2013-03-02 17:45:00,
2013-03-02 09:50:00,58.7,58.7,30.22,South,184,0.0,4.0,100,0.00,,,0.00,0409,Weather View 32 v70,2013-03-02 17:50:00,
2013-03-02 10:00:00,59.8,59.2,30.22,NE,49,3.0,4.0,98,0.00,,,0.00,0483,Weather View 32 v70,2013-03-02 18:00:00,
2013-03-02 10:05:00,60.3,59.4,30.22,North,4,1.0,4.0,97,0.00,,,0.00,0438,Weather View 32 v70,2013-03-02 18:05:00,
2013-03-02 10:10:00,61.1,59.9,30.22,SE,139,0.0,4.0,96,0.00,,,0.00,0454,Weather View 32 v70,2013-03-02 18:10:00,
2013-03-02 10:15:00,61.9,60.1,30.22,East,94,1.0,4.0,94,0.00,,,0.00,0361,Weather View 32 v70,2013-03-02 18:15:00,
2013-03-02 10:20:00,62.4,60.3,30.22,South,184,3.0,4.0,93,0.00,,,0.00,0417,Weather View 32 v70,2013-03-02 18:20:00,
2013-03-02 10:25:00,62.5,60.1,30.22,East,94,1.0,4.0,92,0.00,,,0.00,0361,Weather View 32 v70,2013-03-02 18:25:00,
2013-03-02 10:35:00,62.4,59.4,30.21,SSW,207,2.0,4.0,90,0.00,,,0.00,0462,Weather View 32 v70,2013-03-02 18:35:00,
2013-03-02 10:40:00,63.0,60.0,30.21,SSE,162,0.0,4.0,90,0.00,,,0.00,0590,Weather View 32 v70,2013-03-02 18:40:00,
2013-03-02 10:45:00,63.6,60.3,30.21,ESE,117,3.0,4.0,89,0.00,,,0.00,0646,Weather View 32 v70,2013-03-02 18:45:00,
2013-03-02 10:50:00,64.0,60.0,30.21,NNW,342,1.0,4.0,87,0.00,,,0.00,0303,Weather View 32 v70,2013-03-02 18:50:00,
2013-03-02 11:00:00,64.8,59.8,30.21,SE,139,2.0,4.0,84,0.00,,,0.00,0358,Weather View 32 v70,2013-03-02 19:00:00,
2013-03-02 11:05:00,64.8,58.8,30.21,ESE,117,3.0,4.0,81,0.00,,,0.00,0304,Weather View 32 v70,2013-03-02 19:05:00,
2013-03-02 11:10:00,65.4,59.0,30.21,South,184,0.0,4.0,80,0.00,,,0.00,0618,Weather View 32 v70,2013-03-02 19:10:00,
2013-03-02 11:15:00,66.2,59.5,30.20,WSW,252,1.0,4.0,79,0.00,,,0.00,0428,Weather View 32 v70,2013-03-02 19:15:00,
2013-03-02 11:25:00,66.6,58.0,30.20,NNE,27,1.0,4.0,74,0.00,,,0.00,0551,Weather View 32 v70,2013-03-02 19:25:00,
2013-03-02 11:30:00,67.1,58.1,30.20,NE,49,1.0,4.0,73,0.00,,,0.00,0524,Weather View 32 v70,2013-03-02 19:30:00,
2013-03-02 11:40:00,68.3,58.5,30.20,SSW,207,1.0,4.0,71,0.00,,,0.00,0678,Weather View 32 v70,2013-03-02 19:40:00,
2013-03-02 11:45:00,69.1,59.3,30.19,ESE,117,3.0,4.0,71,0.00,,,0.00,0704,Weather View 32 v70,2013-03-02 19:45:00,
2013-03-02 11:50:00,69.1,58.9,30.19,SW,229,1.0,4.0,70,0.00,,,0.00,0477,Weather View 32 v70,2013-03-02 19:50:00,
2013-03-02 12:00:00,69.0,58.4,30.19,NE,49,3.0,8.0,69,0.00,,,0.00,0336,Weather View 32 v70,2013-03-02 20:00:00,
2013-03-02 12:05:00,69.0,58.0,30.19,NW,319,2.0,8.0,68,0.00,,,0.00,0349,Weather View 32 v70,2013-03-02 20:05:00,
2013-03-02 12:10:00,68.6,57.2,30.18,North,4,3.0,8.0,67,0.00,,,0.00,0686,Weather View 32 v70,2013-03-02 20:10:00,
2013-03-02 12:15:00,68.9,57.5,30.18,NE,49,3.0,8.0,67,0.00,,,0.00,0523,Weather View 32 v70,2013-03-02 20:15:00,
2013-03-02 12:25:00,69.3,57.8,30.17,NNE,27,3.0,8.0,67,0.00,,,0.00,0395,Weather View 32 v70,2013-03-02 20:25:00,
2013-03-02 12:30:00,69.4,57.5,30.17,ENE,72,2.0,8.0,66,0.00,,,0.00,0441,Weather View 32 v70,2013-03-02 20:30:00,
2013-03-02 12:40:00,70.5,57.3,30.17,NNE,27,1.0,8.0,63,0.00,,,0.00,0784,Weather View 32 v70,2013-03-02 20:40:00,
2013-03-02 12:45:00,70.7,57.4,30.16,ENE,72,1.0,8.0,63,0.00,,,0.00,0231,Weather View 32 v70,2013-03-02 20:45:00,
2013-03-02 12:55:00,70.5,58.1,30.16,NW,319,1.0,6.0,65,0.00,,,0.00,0330,Weather View 32 v70,2013-03-02 20:55:00,
2013-03-02 13:00:00,70.8,58.4,30.15,West,274,2.0,6.0,65,0.00,,,0.00,0709,Weather View 32 v70,2013-03-02 21:00:00,
2013-03-02 13:05:00,71.3,58.9,30.15,North,4,2.0,6.0,65,0.00,,,0.00,0497,Weather View 32 v70,2013-03-02 21:05:00,
2013-03-02 13:10:00,71.7,58.8,30.15,East,94,3.0,6.0,64,0.00,,,0.00,0722,Weather View 32 v70,2013-03-02 21:10:00,
2013-03-02 13:15:00,71.3,58.5,30.15,WNW,297,4.0,6.0,64,0.00,,,0.00,0307,Weather View 32 v70,2013-03-02 21:15:00,
2013-03-02 13:25:00,71.0,58.2,30.14,North,4,0.0,6.0,64,0.00,,,0.00,0367,Weather View 32 v70,2013-03-02 21:25:00,
2013-03-02 13:30:00,71.7,58.8,30.14,South,184,3.0,6.0,64,0.00,,,0.00,0428,Weather View 32 v70,2013-03-02 21:30:00,
2013-03-02 13:35:00,71.7,58.4,30.14,East,94,3.0,6.0,63,0.00,,,0.00,0436,Weather View 32 v70,2013-03-02 21:35:00,
2013-03-02 13:40:00,71.3,58.0,30.14,East,94,1.0,6.0,63,0.00,,,0.00,0270,Weather View 32 v70,2013-03-02 21:40:00,
2013-03-02 13:50:00,70.9,58.1,30.13,WNW,297,3.0,6.0,64,0.00,,,0.00,0294,Weather View 32 v70,2013-03-02 21:50:00,
2013-03-02 13:55:00,71.4,58.5,30.13,WSW,252,1.0,6.0,64,0.00,,,0.00,0318,Weather View 32 v70,2013-03-02 21:55:00,
2013-03-02 14:00:00,71.6,58.3,30.13,NW,319,3.0,6.0,63,0.00,,,0.00,0357,Weather View 32 v70,2013-03-02 22:00:00,
2013-03-02 14:05:00,72.1,58.8,30.12,SW,229,1.0,6.0,63,0.00,,,0.00,0451,Weather View 32 v70,2013-03-02 22:05:00,
2013-03-02 14:10:00,72.8,59.4,30.12,East,94,2.0,6.0,63,0.00,,,0.00,0429,Weather View 32 v70,2013-03-02 22:10:00,
2013-03-02 14:20:00,73.1,59.3,30.12,SE,139,1.0,6.0,62,0.00,,,0.00,0520,Weather View 32 v70,2013-03-02 22:20:00,
2013-03-02 14:25:00,73.1,58.3,30.12,SW,229,3.0,6.0,60,0.00,,,0.00,0447,Weather View 32 v70,2013-03-02 22:25:00,
2013-03-02 14:35:00,73.5,58.7,30.11,SE,139,0.0,6.0,60,0.00,,,0.00,0346,Weather View 32 v70,2013-03-02 22:35:00,
2013-03-02 14:40:00,73.9,59.1,30.11,SE,139,3.0,6.0,60,0.00,,,0.00,0373,Weather View 32 v70,2013-03-02 22:40:00,
2013-03-02 14:50:00,74.0,56.8,30.11,SE,139,3.0,5.0,55,0.00,,,0.00,0267,Weather View 32 v70,2013-03-02 22:50:00,
2013-03-02 14:55:00,73.7,56.5,30.10,SE,139,1.0,5.0,55,0.00,,,0.00,0225,Weather View 32 v70,2013-03-02 22:55:00,
2013-03-02 15:00:00,73.8,56.1,30.10,SSE,162,1.0,5.0,54,0.00,,,0.00,0312,Weather View 32 v70,2013-03-02 23:00:00,
2013-03-02 15:05:00,73.7,55.5,30.10,SSW,207,2.0,5.0,53,0.00,,,0.00,0271,Weather View 32 v70,2013-03-02 23:05:00,
2013-03-02 15:15:00,73.6,56.4,30.10,NW,319,3.0,5.0,55,0.00,,,0.00,0192,Weather View 32 v70,2013-03-02 23:15:00,
2013-03-02 15:20:00,71.9,58.6,30.10,NW,319,6.0,6.0,63,0.00,,,0.00,0186,Weather View 32 v70,2013-03-02 23:20:00,
2013-03-02 15:25:00,71.6,60.0,30.09,NW,319,6.0,7.0,67,0.00,,,0.00,0213,Weather View 32 v70,2013-03-02 23:25:00,
2013-03-02 15:30:00,70.9,60.6,30.10,North,4,6.0,9.0,70,0.00,,,0.00,0228,Weather View 32 v70,2013-03-02 23:30:00,
2013-03-02 15:35:00,71.1,61.2,30.09,NNW,342,4.0,9.0,71,0.00,,,0.00,0177,Weather View 32 v70,2013-03-02 23:35:00,
2013-03-02 15:45:00,70.7,60.4,30.09,WNW,297,4.0,9.0,70,0.00,,,0.00,0128,Weather View 32 v70,2013-03-02 23:45:00,
2013-03-02 15:50:00,70.6,60.7,30.09,West,274,4.0,9.0,71,0.00,,,0.00,0129,Weather View 32 v70,2013-03-02 23:50:00,
2013-03-02 15:55:00,70.5,61.0,30.09,WNW,297,2.0,9.0,72,0.00,,,0.00,0125,Weather View 32 v70,2013-03-02 23:55:00,
2013-03-02 16:00:00,70.5,61.0,30.09,NW,319,3.0,9.0,72,0.00,,,0.00,0130,Weather View 32 v70,2013-03-03 00:00:00,
2013-03-02 16:05:00,70.5,60.6,30.09,WSW,252,3.0,9.0,71,0.00,,,0.00,0101,Weather View 32 v70,2013-03-03 00:05:00,
2013-03-02 16:15:00,70.6,61.5,30.09,NNW,342,3.0,9.0,73,0.00,,,0.00,0088,Weather View 32 v70,2013-03-03 00:15:00,
2013-03-02 16:20:00,70.4,60.9,30.09,WNW,297,2.0,9.0,72,0.00,,,0.00,0096,Weather View 32 v70,2013-03-03 00:20:00,
2013-03-02 16:25:00,70.1,60.6,30.09,WSW,252,2.0,9.0,72,0.00,,,0.00,0099,Weather View 32 v70,2013-03-03 00:25:00,
2013-03-02 16:30:00,69.9,60.4,30.09,South,184,5.0,8.0,72,0.00,,,0.00,0114,Weather View 32 v70,2013-03-03 00:30:00,
2013-03-02 16:35:00,69.5,58.4,30.08,West,274,4.0,7.0,68,0.00,,,0.00,0157,Weather View 32 v70,2013-03-03 00:35:00,
2013-03-02 16:45:00,69.5,58.0,30.07,SW,229,4.0,7.0,67,0.00,,,0.00,0084,Weather View 32 v70,2013-03-03 00:45:00,
2013-03-02 16:50:00,69.6,58.1,30.07,West,274,2.0,7.0,67,0.00,,,0.00,0071,Weather View 32 v70,2013-03-03 00:50:00,
2013-03-02 16:55:00,69.6,58.9,30.07,SE,139,0.0,7.0,69,0.00,,,0.00,0054,Weather View 32 v70,2013-03-03 00:55:00,
2013-03-02 17:00:00,69.6,58.9,30.07,SE,139,0.0,7.0,69,0.00,,,0.00,0043,Weather View 32 v70,2013-03-03 01:00:00,
2013-03-02 17:10:00,69.1,59.3,30.08,SSE,162,1.0,7.0,71,0.00,,,0.00,0038,Weather View 32 v70,2013-03-03 01:10:00,
2013-03-02 17:15:00,68.8,59.0,30.08,SSE,162,0.0,7.0,71,0.00,,,0.00,0033,Weather View 32 v70,2013-03-03 01:15:00,
2013-03-02 17:20:00,68.7,58.9,30.09,SSW,207,5.0,7.0,71,0.00,,,0.00,0031,Weather View 32 v70,2013-03-03 01:20:00,
2013-03-02 17:25:00,68.2,55.9,30.09,South,184,5.0,8.0,65,0.00,,,0.00,0029,Weather View 32 v70,2013-03-03 01:25:00,
2013-03-02 17:30:00,68.0,54.9,30.09,West,274,4.0,8.0,63,0.00,,,0.00,0038,Weather View 32 v70,2013-03-03 01:30:00,
2013-03-02 17:40:00,67.7,54.6,30.09,West,274,3.0,10.0,63,0.00,,,0.00,0025,Weather View 32 v70,2013-03-03 01:40:00,
2013-03-02 17:45:00,67.6,54.5,30.09,SSE,162,0.0,10.0,63,0.00,,,0.00,0016,Weather View 32 v70,2013-03-03 01:45:00,
2013-03-02 17:50:00,67.1,54.0,30.09,West,274,4.0,10.0,63,0.00,,,0.00,0009,Weather View 32 v70,2013-03-03 01:50:00,
2013-03-02 17:55:00,66.8,54.2,30.10,WSW,252,9.0,13.0,64,0.00,,,0.00,0005,Weather View 32 v70,2013-03-03 01:55:00,
2013-03-02 18:00:00,65.5,55.8,30.09,SSW,207,9.0,16.0,71,0.00,,,0.00,0003,Weather View 32 v70,2013-03-03 02:00:00,
2013-03-02 18:10:00,64.0,56.6,30.10,SSW,207,9.0,17.0,77,0.00,,,0.00,0002,Weather View 32 v70,2013-03-03 02:10:00,
2013-03-02 18:15:00,63.0,56.0,30.10,WSW,252,7.0,19.0,78,0.00,,,0.00,0002,Weather View 32 v70,2013-03-03 02:15:00,
2013-03-02 18:20:00,62.4,56.1,30.10,SW,229,12.0,19.0,80,0.00,,,0.00,0002,Weather View 32 v70,2013-03-03 02:20:00,
2013-03-02 18:25:00,62.1,56.2,30.10,SW,229,4.0,19.0,81,0.00,,,0.00,0001,Weather View 32 v70,2013-03-03 02:25:00,
2013-03-02 18:30:00,61.9,56.0,30.11,SW,229,9.0,19.0,81,0.00,,,0.00,0002,Weather View 32 v70,2013-03-03 02:30:00,
2013-03-02 18:40:00,62.2,55.9,30.11,SSW,207,11.0,19.0,80,0.00,,,0.00,0001,Weather View 32 v70,2013-03-03 02:40:00,
2013-03-02 18:45:00,62.5,55.9,30.11,WSW,252,7.0,19.0,79,0.00,,,0.00,0002,Weather View 32 v70,2013-03-03 02:45:00,
2013-03-02 18:50:00,62.5,55.5,30.11,West,274,7.0,19.0,78,0.00,,,0.00,0001,Weather View 32 v70,2013-03-03 02:50:00,
2013-03-02 18:55:00,62.6,55.6,30.11,WSW,252,6.0,19.0,78,0.00,,,0.00,0002,Weather View 32 v70,2013-03-03 02:55:00,
2013-03-02 19:00:00,62.6,55.3,30.11,WNW,297,3.0,19.0,77,0.00,,,0.00,0001,Weather View 32 v70,2013-03-03 03:00:00,
2013-03-02 19:10:00,62.7,55.0,30.12,East,94,1.0,19.0,76,0.00,,,0.00,0001,Weather View 32 v70,2013-03-03 03:10:00,
2013-03-02 19:15:00,62.4,55.4,30.12,ESE,117,3.0,19.0,78,0.00,,,0.00,0001,Weather View 32 v70,2013-03-03 03:15:00,
2013-03-02 19:20:00,62.2,55.6,30.12,ESE,117,3.0,18.0,79,0.00,,,0.00,0002,Weather View 32 v70,2013-03-03 03:20:00,
2013-03-02 19:30:00,62.0,56.1,30.12,East,94,3.0,18.0,81,0.00,,,0.00,0001,Weather View 32 v70,2013-03-03 03:30:00,
2013-03-02 19:35:00,61.7,56.8,30.12,ESE,117,5.0,16.0,84,0.00,,,0.00,0001,Weather View 32 v70,2013-03-03 03:35:00,
2013-03-02 19:40:00,61.8,57.2,30.12,ESE,117,3.0,16.0,85,0.00,,,0.00,0001,Weather View 32 v70,2013-03-03 03:40:00,
2013-03-02 19:45:00,61.7,57.1,30.12,SE,139,2.0,13.0,85,0.00,,,0.00,0001,Weather View 32 v70,2013-03-03 03:45:00,
2013-03-02 19:55:00,61.5,57.3,30.12,East,94,1.0,10.0,86,0.00,,,0.00,0001,Weather View 32 v70,2013-03-03 03:55:00,
2013-03-02 20:00:00,61.3,57.4,30.12,SSE,162,1.0,10.0,87,0.00,,,0.00,0001,Weather View 32 v70,2013-03-03 04:00:00,
2013-03-02 20:05:00,61.2,57.3,30.12,South,184,0.0,7.0,87,0.00,,,0.00,0002,Weather View 32 v70,2013-03-03 04:05:00,
2013-03-02 20:15:00,60.7,56.8,30.12,South,184,0.0,6.0,87,0.00,,,0.00,0001,Weather View 32 v70,2013-03-03 04:15:00,
2013-03-02 20:20:00,60.1,55.9,30.12,SSE,162,0.0,6.0,86,0.00,,,0.00,0002,Weather View 32 v70,2013-03-03 04:20:00,
2013-03-02 20:25:00,59.9,55.7,30.12,SE,139,0.0,6.0,86,0.00,,,0.00,0002,Weather View 32 v70,2013-03-03 04:25:00,
2013-03-02 20:30:00,59.8,55.9,30.11,SE,139,0.0,6.0,87,0.00,,,0.00,0001,Weather View 32 v70,2013-03-03 04:30:00,
2013-03-02 20:35:00,59.6,55.7,30.11,SSW,207,0.0,6.0,87,0.00,,,0.00,0002,Weather View 32 v70,2013-03-03 04:35:00,
2013-03-02 20:45:00,59.1,55.9,30.11,West,274,2.0,4.0,89,0.00,,,0.00,0002,Weather View 32 v70,2013-03-03 04:45:00,
2013-03-02 20:50:00,59.1,55.9,30.11,WSW,252,0.0,4.0,89,0.00,,,0.00,0001,Weather View 32 v70,2013-03-03 04:50:00,
2013-03-02 20:55:00,59.1,56.2,30.11,South,184,0.0,4.0,90,0.00,,,0.00,0002,Weather View 32 v70,2013-03-03 04:55:00,
2013-03-02 21:00:00,58.9,56.0,30.11,SSW,207,0.0,4.0,90,0.00,,,0.00,0002,Weather View 32 v70,2013-03-03 05:00:00,
2013-03-02 21:05:00,58.6,55.7,30.11,NW,319,3.0,4.0,90,0.00,,,0.00,0001,Weather View 32 v70,2013-03-03 05:05:00,
2013-03-02 21:10:00,58.8,56.2,30.11,WSW,252,1.0,4.0,91,0.00,,,0.00,0001,Weather View 32 v70,2013-03-03 05:10:00,
2013-03-02 21:15:00,58.8,56.2,30.11,South,184,0.0,4.0,91,0.00,,,0.00,0001,Weather View 32 v70,2013-03-03 05:15:00,
2013-03-02 21:20:00,58.7,55.8,30.11,WSW,252,0.0,4.0,90,0.00,,,0.00,0001,Weather View 32 v70,2013-03-03 05:20:00,
2013-03-02 21:30:00,58.5,55.6,30.11,ESE,117,0.0,4.0,90,0.00,,,0.00,0002,Weather View 32 v70,2013-03-03 05:30:00,
2013-03-02 21:35:00,58.5,55.6,30.11,NE,49,0.0,4.0,90,0.00,,,0.00,0001,Weather View 32 v70,2013-03-03 05:35:00,
2013-03-02 21:40:00,58.7,55.5,30.12,ENE,72,0.0,4.0,89,0.00,,,0.00,0001,Weather View 32 v70,2013-03-03 05:40:00,
2013-03-02 21:45:00,59.2,56.0,30.11,North,4,0.0,3.0,89,0.00,,,0.00,0001,Weather View 32 v70,2013-03-03 05:45:00,
2013-03-02 21:50:00,59.5,55.3,30.11,South,184,0.0,3.0,86,0.00,,,0.00,0001,Weather View 32 v70,2013-03-03 05:50:00,
2013-03-02 21:55:00,59.6,54.4,30.11,WNW,297,3.0,3.0,83,0.00,,,0.00,0001,Weather View 32 v70,2013-03-03 05:55:00,
2013-03-02 22:05:00,59.4,53.9,30.11,NW,319,5.0,6.0,82,0.00,,,0.00,0001,Weather View 32 v70,2013-03-03 06:05:00,
2013-03-02 22:10:00,58.8,54.3,30.11,NW,319,6.0,9.0,85,0.00,,,0.00,0001,Weather View 32 v70,2013-03-03 06:10:00,
2013-03-02 22:15:00,58.6,54.7,30.12,West,274,4.0,9.0,87,0.00,,,0.00,0001,Weather View 32 v70,2013-03-03 06:15:00,
2013-03-02 22:20:00,58.4,54.8,30.11,West,274,3.0,9.0,88,0.00,,,0.00,0002,Weather View 32 v70,2013-03-03 06:20:00,
2013-03-02 22:25:00,58.1,54.9,30.11,WNW,297,6.0,9.0,89,0.00,,,0.00,0001,Weather View 32 v70,2013-03-03 06:25:00,
2013-03-02 22:30:00,57.9,55.0,30.11,WNW,297,5.0,12.0,90,0.00,,,0.00,0001,Weather View 32 v70,2013-03-03 06:30:00,
2013-03-02 22:40:00,57.5,54.6,30.12,NW,319,7.0,12.0,90,0.00,,,0.00,0001,Weather View 32 v70,2013-03-03 06:40:00,
2013-03-02 22:45:00,57.4,54.5,30.12,NW,319,6.0,12.0,90,0.00,,,0.00,0001,Weather View 32 v70,2013-03-03 06:45:00,
2013-03-02 22:50:00,57.3,54.4,30.11,WNW,297,6.0,12.0,90,0.00,,,0.00,0001,Weather View 32 v70,2013-03-03 06:50:00,
2013-03-02 22:55:00,56.8,54.2,30.11,NW,319,9.0,12.0,91,0.00,,,0.00,0002,Weather View 32 v70,2013-03-03 06:55:00,
2013-03-02 23:00:00,56.5,54.2,30.12,North,4,6.0,12.0,92,0.00,,,0.00,0001,Weather View 32 v70,2013-03-03 07:00:00,
2013-03-02 23:10:00,56.7,54.7,30.12,West,274,4.0,12.0,93,0.00,,,0.00,0002,Weather View 32 v70,2013-03-03 07:10:00,
2013-03-02 23:15:00,57.3,55.0,30.12,WNW,297,4.0,12.0,92,0.00,,,0.00,0001,Weather View 32 v70,2013-03-03 07:15:00,
2013-03-02 23:20:00,56.9,54.6,30.12,NNW,342,5.0,12.0,92,0.00,,,0.00,0002,Weather View 32 v70,2013-03-03 07:20:00,
2013-03-02 23:25:00,56.5,54.5,30.12,North,4,3.0,12.0,93,0.00,,,0.00,0002,Weather View 32 v70,2013-03-03 07:25:00,
2013-03-02 23:30:00,56.3,54.6,30.11,NW,319,6.0,11.0,94,0.00,,,0.00,0001,Weather View 32 v70,2013-03-03 07:30:00,
2013-03-02 23:40:00,56.3,54.6,30.12,WNW,297,3.0,11.0,94,0.00,,,0.00,0002,Weather View 32 v70,2013-03-03 07:40:00,
2013-03-02 23:45:00,56.1,54.7,30.12,WNW,297,3.0,11.0,95,0.00,,,0.00,0001,Weather View 32 v70,2013-03-03 07:45:00,
2013-03-02 23:50:00,56.2,54.8,30.12,ESE,117,1.0,11.0,95,0.00,,,0.00,0001,Weather View 32 v70,2013-03-03 07:50:00,
2013-03-02 23:55:00,56.1,55.0,30.12,ENE,72,1.0,11.0,96,0.00,,,0.00,0002,Weather View 32 v70,2013-03-03 07:55:00,